Balsam Lake, Wisconsin
Current Conditions -  °F | °C
As of 7:35 PM on Tuesday 21 Oct 2014 (Local Time) from KOEO Reporting Station
Clear Clear  
Wind Chill: 42°   Ceiling: Unl
Heat Index: 45°   Visibility: 10mi
Dew Point: 37°   Wind: 6mph
Humidity: 75%   Direction: 130°SE
Pressure: 30.19"   Gusts: NA
Location:  45.45°N, 92.45°W
Report Text: KOEO 220035Z AUTO 13005KT 10SM CLR 07/03 A3019 RMK AO2 T00710030
Loading
Personal Weather Stations






























Interactive Weather Map
Tropical Storm Tracking
New forecast layout! Learn more

10-Day Weather Forecast

Advertisements
Track Severe Weather on mobile